Skye — WDG4178 — position and weather

sailwx.info

Track history (hours):
 
Tides and Currents Weather Stations Pressure Air Temp Water Temp Dewpoint Dewpoint Depression Visibility Wind Speed Wind Dir Waves Ship Positions

Skye

Owner: Worthington, Ralph, New York, NY. More information available from US FCC via Universal Licensing System and Coast Guard Vessel Documentation Center.

Last reported at 2016-Apr-24 14:33 UTC. Time now 2016-Apr-29 06:02 UTC.
Position N 35°56' E 014°34'.

Length 13 m.

Type: Sailing vessel. MMSI: 367533820.

Date/timePositionNaut miles runAvg speedWind from/ knotsBaromVisibWave heightAir tempDewpointWater temp
2016-Apr-24 14:33N 35°56' E 014°34'12 3.0
2016-Apr-24 10:33N 35°48' E 014°22'7 7.3
2016-Apr-24 09:33N 35°55' E 014°19'6 0.4
2016-Apr-23 16:10N 36°02' E 014°18'2 3.5
2016-Apr-23 15:33N 35°60' E 014°17'5 1.4
2016-Apr-23 12:04N 36°02' E 014°11'3 3.8
2016-Apr-23 11:12N 36°01' E 014°15'2 3.3
2016-Apr-23 10:33N 36°01' E 014°18'2 0.1
2016-Apr-22 17:33N 36°01' E 014°20'0 0.0
2016-Apr-22 16:32N 36°01' E 014°20'0 0.4
2016-Apr-22 15:27N 36°01' E 014°19'0 0.0
2016-Apr-22 14:33N 36°01' E 014°19'0 0.3
2016-Apr-22 13:33N 36°01' E 014°19'7 6.8
2016-Apr-22 12:33N 36°06' E 014°26'4 4.1
2016-Apr-22 11:33N 36°02' E 014°26'5 5.0
2016-Apr-22 10:32N 35°58' E 014°30'  
2016-Apr-18 02:04N 35°54' E 014°30'0 0.0
2016-Apr-18 01:10N 35°54' E 014°30'0 0.0
2016-Apr-17 23:22N 35°54' E 014°30'0 0.0
2016-Apr-17 22:15N 35°54' E 014°30'0 0.0
2016-Apr-16 16:30N 35°54' E 014°30'0 0.0
2016-Apr-16 13:30N 35°54' E 014°30'  
Track history (hours):
 
Tides and Currents Weather Stations Pressure Air Temp Water Temp Dewpoint Dewpoint Depression Visibility Wind Speed Wind Dir Waves Ship Positions

Skye

Owner: Worthington, Ralph, New York, NY. More information available from US FCC via Universal Licensing System and Coast Guard Vessel Documentation Center.

Last reported at 2016-Apr-24 14:33 UTC. Time now 2016-Apr-29 06:02 UTC.
Position N 35°56' E 014°34'.

Length 13 m.

Type: Sailing vessel. MMSI: 367533820.

Date/timePositionNaut miles runAvg speedWind from/ knotsBaromVisibWave heightAir tempDewpointWater temp
2016-Apr-24 14:33N 35°56' E 014°34'12 3.0
2016-Apr-24 10:33N 35°48' E 014°22'7 7.3
2016-Apr-24 09:33N 35°55' E 014°19'6 0.4
2016-Apr-23 16:10N 36°02' E 014°18'2 3.5
2016-Apr-23 15:33N 35°60' E 014°17'5 1.4
2016-Apr-23 12:04N 36°02' E 014°11'3 3.8
2016-Apr-23 11:12N 36°01' E 014°15'2 3.3
2016-Apr-23 10:33N 36°01' E 014°18'2 0.1
2016-Apr-22 17:33N 36°01' E 014°20'0 0.0
2016-Apr-22 16:32N 36°01' E 014°20'0 0.4
2016-Apr-22 15:27N 36°01' E 014°19'0 0.0
2016-Apr-22 14:33N 36°01' E 014°19'0 0.3
2016-Apr-22 13:33N 36°01' E 014°19'7 6.8
2016-Apr-22 12:33N 36°06' E 014°26'4 4.1
2016-Apr-22 11:33N 36°02' E 014°26'5 5.0
2016-Apr-22 10:32N 35°58' E 014°30'  
2016-Apr-18 02:04N 35°54' E 014°30'0 0.0
2016-Apr-18 01:10N 35°54' E 014°30'0 0.0
2016-Apr-17 23:22N 35°54' E 014°30'0 0.0
2016-Apr-17 22:15N 35°54' E 014°30'0 0.0
2016-Apr-16 16:30N 35°54' E 014°30'0 0.0
2016-Apr-16 13:30N 35°54' E 014°30'  

Dump ship's entire track history